South Coffeyville, Oklahoma
Current Conditions -  °F | °C
As of 7:52 AM on Friday 31 Oct 2014 (Local Time) from KCFV Reporting Station
Light Rain Light Rain  
Wind Chill: 38°   Ceiling: 2500
Heat Index: 46°   Visibility: 10mi
Dew Point: 37°   Wind: 21mph
Humidity: 71%   Direction: 350°N
Pressure: 30.36"   Gusts: 29mph
Location:  36.99°N, 95.62°W
Report Text: KCFV 311252Z AUTO 35018G25KT 10SM -RA BKN025 08/03 A3036 RMK AO2 PK WND 35026/1242 RAB30 SLP281 P0000 T00780028
Loading
Personal Weather Stations






























Interactive Weather Map
Tropical Storm Tracking
New forecast layout! Learn more

10-Day Weather Forecast

Advertisements
Track Severe Weather on mobile